Time;durP1;ratioP1;P1;durP2;ratioP2;P2;SDS_P1;SDS_P2;PMS_P1;PMS_P2;Temp;Humidity;BMP_temperature;BMP_pressure;BME280_temperature;BME280_humidity;BME280_pressure;Samples;Min_cycle;Max_cycle;Signal;HPM_P1;HPM_P2
2023/02/22 00:02:27;;;;;;;247.73;40.80;;;7.80;99.90;;;;;;5058196;28;20467;-73
2023/02/22 00:04:55;;;;;;;253.37;38.00;;;7.80;99.90;;;;;;5055581;28;20463;-70
2023/02/22 00:07:22;;;;;;;259.10;39.80;;;7.80;99.90;;;;;;5048279;28;20468;-71
2023/02/22 00:09:50;;;;;;;118.20;36.53;;;7.80;99.90;;;;;;5063343;28;20483;-74
2023/02/22 00:12:17;;;;;;;243.10;38.83;;;7.80;99.90;;;;;;5056365;28;20597;-75
2023/02/22 00:14:46;;;;;;;267.57;37.37;;;7.80;99.90;;;;;;5056216;28;20467;-75
2023/02/22 00:17:13;;;;;;;468.27;46.20;;;7.80;99.90;;;;;;5053279;28;20471;-73
2023/02/22 00:19:41;;;;;;;170.27;39.30;;;7.80;99.90;;;;;;5046249;28;20460;-73
2023/02/22 00:22:08;;;;;;;309.20;45.00;;;7.80;99.90;;;;;;5061939;28;20470;-75
2023/02/22 00:24:35;;;;;;;305.50;42.13;;;7.90;99.90;;;;;;5055332;28;20463;-73
2023/02/22 00:27:03;;;;;;;147.47;35.63;;;7.80;99.90;;;;;;5053429;28;20482;-72
2023/02/22 00:29:33;;;;;;;114.87;36.60;;;7.80;99.90;;;;;;5053021;28;20458;-76
2023/02/22 00:31:59;;;;;;;174.73;36.50;;;7.80;99.90;;;;;;5057945;28;20478;-71
2023/02/22 00:34:26;;;;;;;379.00;44.93;;;7.80;99.90;;;;;;5053562;28;20476;-74
2023/02/22 00:36:53;;;;;;;227.87;38.93;;;7.90;99.90;;;;;;5062965;28;20463;-73
2023/02/22 00:39:21;;;;;;;227.53;39.10;;;7.80;99.90;;;;;;5059288;28;20957;-73
2023/02/22 00:41:48;;;;;;;275.17;37.83;;;7.80;99.90;;;;;;5056464;28;20998;-74
2023/02/22 00:44:16;;;;;;;334.50;39.63;;;7.80;99.90;;;;;;5053710;28;20535;-73
2023/02/22 00:46:44;;;;;;;220.70;37.10;;;7.80;99.90;;;;;;5054440;28;20459;-73
2023/02/22 00:49:11;;;;;;;292.30;40.37;;;7.80;99.90;;;;;;5057919;28;20462;-73
2023/02/22 00:51:38;;;;;;;196.87;38.50;;;7.80;99.90;;;;;;5065280;28;20519;-72
2023/02/22 00:54:05;;;;;;;305.53;42.80;;;7.80;99.90;;;;;;5048512;28;20491;-74
2023/02/22 00:56:33;;;;;;;296.23;43.70;;;7.80;99.90;;;;;;5058160;28;20466;-72
2023/02/22 00:59:02;;;;;;;570.03;49.80;;;7.80;99.90;;;;;;5058594;28;20549;-72
2023/02/22 01:01:32;;;;;;;504.67;47.37;;;7.80;99.90;;;;;;5057030;28;20482;-76
2023/02/22 01:03:58;;;;;;;259.07;38.87;;;7.80;99.90;;;;;;5060741;28;20475;-74
2023/02/22 01:06:26;;;;;;;211.27;36.87;;;7.90;99.90;;;;;;5058925;28;20494;-73
2023/02/22 01:08:53;;;;;;;270.83;39.10;;;7.90;99.90;;;;;;5049932;28;20486;-71
2023/02/22 01:11:21;;;;;;;282.27;42.70;;;8.00;99.90;;;;;;5056146;28;20459;-74
2023/02/22 01:13:48;;;;;;;316.17;42.40;;;7.90;99.90;;;;;;5038585;28;21313;-73
2023/02/22 01:16:15;;;;;;;330.77;38.70;;;8.00;99.90;;;;;;5061878;28;20602;-72
2023/02/22 01:18:43;;;;;;;149.77;38.37;;;8.00;99.90;;;;;;5050821;28;20887;-70
2023/02/22 01:21:11;;;;;;;228.10;38.67;;;7.90;99.90;;;;;;5050107;28;20474;-71
2023/02/22 01:23:38;;;;;;;193.70;36.87;;;7.80;99.90;;;;;;5055466;28;20478;-74
2023/02/22 01:26:06;;;;;;;205.80;39.30;;;7.80;99.90;;;;;;5051470;28;20464;-74
2023/02/22 01:28:34;;;;;;;328.80;41.00;;;7.90;99.90;;;;;;5056493;28;20474;-71
2023/02/22 01:31:01;;;;;;;191.70;35.93;;;7.90;99.90;;;;;;5065527;28;20463;-71
2023/02/22 01:33:28;;;;;;;197.43;37.47;;;7.90;99.90;;;;;;5058382;28;21073;-71
2023/02/22 01:35:56;;;;;;;164.73;36.43;;;7.90;99.90;;;;;;5054050;28;20462;-71
2023/02/22 01:38:23;;;;;;;121.07;35.47;;;7.90;99.90;;;;;;5059846;28;20461;-70
2023/02/22 01:40:51;;;;;;;293.03;40.67;;;7.90;99.90;;;;;;5061487;28;20469;-74
2023/02/22 01:43:25;;;;;;;175.30;37.30;;;7.90;99.90;;;;;;5056315;28;20476;-71
2023/02/22 01:46:00;;;;;;;126.80;36.53;;;7.90;99.90;;;;;;5051424;28;20467;-73
2023/02/22 01:48:35;;;;;;;227.87;39.27;;;7.90;99.90;;;;;;5057888;28;20464;-72
2023/02/22 01:51:09;;;;;;;179.50;37.10;;;8.00;99.90;;;;;;5050337;28;20462;-73
2023/02/22 01:53:41;;;;;;;283.67;39.57;;;8.00;99.90;;;;;;5055756;28;20490;-72
2023/02/22 01:56:09;;;;;;;348.53;40.50;;;7.90;99.90;;;;;;5057211;28;20457;-74
2023/02/22 01:58:38;;;;;;;405.00;40.13;;;7.90;99.90;;;;;;5051449;28;20463;-73
2023/02/22 02:01:06;;;;;;;307.97;40.50;;;7.80;99.90;;;;;;5053798;28;20454;-76
2023/02/22 02:03:37;;;;;;;336.70;38.87;;;7.70;99.90;;;;;;5049533;28;21066;-73
2023/02/22 02:06:10;;;;;;;160.87;32.40;;;7.70;99.90;;;;;;5056359;28;20478;-74
2023/02/22 02:08:48;;;;;;;261.60;35.83;;;7.70;99.90;;;;;;5059132;28;20457;-74
2023/02/22 02:11:17;;;;;;;257.93;40.63;;;7.60;99.90;;;;;;5048516;28;20981;-72
2023/02/22 02:13:44;;;;;;;238.80;37.10;;;7.60;99.90;;;;;;5058872;28;20985;-73
2023/02/22 02:16:12;;;;;;;343.83;45.17;;;7.70;99.90;;;;;;5059908;28;20486;-73
2023/02/22 02:18:39;;;;;;;240.43;41.53;;;7.60;99.90;;;;;;5058535;28;20517;-74
2023/02/22 02:21:39;;;;;;;313.53;36.90;;;7.50;99.90;;;;;;5064759;28;20549;-73
2023/02/22 02:24:41;;;;;;;403.40;40.40;;;7.50;99.90;;;;;;5052637;28;20550;-74
2023/02/22 02:27:14;;;;;;;363.23;39.40;;;7.60;99.90;;;;;;5058976;28;20459;-73
2023/02/22 02:30:10;;;;;;;470.80;42.00;;;7.60;99.90;;;;;;5052176;28;20553;-74
2023/02/22 02:32:48;;;;;;;383.77;39.77;;;7.70;99.90;;;;;;5064687;28;20936;-72
2023/02/22 02:35:22;;;;;;;277.87;38.27;;;7.70;99.90;;;;;;5051899;28;20463;-70
2023/02/22 02:37:57;;;;;;;313.33;41.70;;;7.80;99.90;;;;;;5059020;28;20464;-73
2023/02/22 02:40:32;;;;;;;395.90;42.47;;;7.80;99.90;;;;;;5058601;28;20485;-74
2023/02/22 02:43:04;;;;;;;468.90;49.13;;;7.80;99.90;;;;;;5054164;28;20529;-74
2023/02/22 02:45:36;;;;;;;298.23;40.97;;;7.60;99.90;;;;;;5059879;28;20885;-74
2023/02/22 02:48:08;;;;;;;195.97;39.00;;;7.70;99.90;;;;;;5056809;28;20477;-75
2023/02/22 02:50:41;;;;;;;345.97;42.30;;;7.70;99.90;;;;;;5056056;28;20470;-74
2023/02/22 02:53:10;;;;;;;461.03;46.40;;;7.70;99.90;;;;;;5054337;28;20986;-74
2023/02/22 02:55:39;;;;;;;806.37;57.80;;;7.70;99.90;;;;;;5057670;28;20474;-72
2023/02/22 02:58:07;;;;;;;861.13;58.00;;;7.70;99.90;;;;;;5054773;28;20902;-74
2023/02/22 03:00:39;;;;;;;680.57;52.13;;;7.70;99.90;;;;;;5061460;28;20495;-75
2023/02/22 03:03:24;;;;;;;811.77;58.50;;;7.60;99.90;;;;;;5058795;28;20459;-73
2023/02/22 03:06:05;;;;;;;623.73;49.60;;;7.60;99.90;;;;;;5061224;28;20468;-73
2023/02/22 03:08:40;;;;;;;837.67;60.10;;;7.60;99.90;;;;;;5059884;28;20854;-74
2023/02/22 03:11:14;;;;;;;1154.30;75.13;;;7.50;99.90;;;;;;5056683;28;20462;-71
2023/02/22 03:13:54;;;;;;;989.70;69.20;;;7.40;99.90;;;;;;5060323;28;20575;-73
2023/02/22 03:16:28;;;;;;;1218.97;71.60;;;7.40;99.90;;;;;;5059931;28;20490;-75
2023/02/22 03:19:04;;;;;;;1633.40;82.20;;;7.30;99.90;;;;;;5057600;28;20506;-71
2023/02/22 03:21:39;;;;;;;726.57;52.17;;;7.30;99.90;;;;;;5054203;28;20547;-73
2023/02/22 03:24:11;;;;;;;464.03;41.40;;;7.20;99.90;;;;;;5056347;28;21216;-70
2023/02/22 03:26:44;;;;;;;199.90;32.07;;;7.20;99.90;;;;;;5058013;28;20460;-73
2023/02/22 03:29:14;;;;;;;214.07;34.50;;;7.30;99.90;;;;;;5060599;28;20463;-74
2023/02/22 03:31:49;;;;;;;275.63;33.93;;;7.10;99.90;;;;;;5061245;28;20820;-74
2023/02/22 03:34:21;;;;;;;157.20;32.27;;;7.10;99.90;;;;;;5058430;28;20481;-70
2023/02/22 03:36:54;;;;;;;193.17;31.03;;;7.20;99.90;;;;;;5055956;28;20464;-72
2023/02/22 03:39:29;;;;;;;141.67;26.90;;;7.00;99.90;;;;;;5055179;28;20999;-72
2023/02/22 03:42:03;;;;;;;201.13;27.63;;;6.90;99.90;;;;;;5057714;28;20586;-74
2023/02/22 03:44:36;;;;;;;69.97;24.57;;;6.80;99.90;;;;;;5061114;28;21145;-72
2023/02/22 03:47:07;;;;;;;85.67;25.70;;;6.70;99.90;;;;;;5058966;28;20532;-72
2023/02/22 03:49:39;;;;;;;196.90;29.33;;;6.50;99.90;;;;;;5052737;28;20979;-73
2023/02/22 03:52:07;;;;;;;96.93;28.20;;;6.50;99.90;;;;;;5058026;28;20490;-73
2023/02/22 03:54:34;;;;;;;119.13;28.67;;;6.40;99.90;;;;;;5056133;28;20496;-70
2023/02/22 03:57:06;;;;;;;94.43;26.27;;;6.50;99.90;;;;;;5053434;28;20560;-71
2023/02/22 03:59:33;;;;;;;167.27;27.67;;;6.50;99.90;;;;;;5052900;28;20476;-71
2023/02/22 04:02:00;;;;;;;190.13;30.50;;;6.60;99.90;;;;;;5058648;28;20457;-74
2023/02/22 04:04:27;;;;;;;70.90;25.50;;;6.50;99.90;;;;;;5064704;28;20521;-73
2023/02/22 04:06:56;;;;;;;123.37;27.10;;;6.40;99.90;;;;;;5054358;28;20987;-72
2023/02/22 04:09:22;;;;;;;146.23;27.80;;;6.30;99.90;;;;;;5054605;28;20881;-71
2023/02/22 04:11:50;;;;;;;171.07;30.33;;;6.20;99.90;;;;;;5059013;28;20474;-75
2023/02/22 04:14:17;;;;;;;296.87;31.00;;;6.10;99.90;;;;;;5063042;28;20510;-71
2023/02/22 04:16:44;;;;;;;198.33;31.23;;;6.20;99.90;;;;;;5058805;28;20466;-73
2023/02/22 04:19:11;;;;;;;191.07;29.60;;;6.20;99.90;;;;;;5059107;28;20455;-75
2023/02/22 04:21:38;;;;;;;202.90;28.93;;;6.10;99.90;;;;;;5054461;28;20497;-70
2023/02/22 04:24:07;;;;;;;520.93;41.80;;;6.00;99.90;;;;;;5054821;28;20474;-73
2023/02/22 04:26:33;;;;;;;643.07;45.50;;;6.00;99.90;;;;;;5058462;28;20474;-74
2023/02/22 04:29:03;;;;;;;476.43;44.43;;;5.80;99.90;;;;;;5055921;28;20925;-75
2023/02/22 04:31:29;;;;;;;770.87;48.33;;;5.90;99.90;;;;;;5052711;28;20515;-74
2023/02/22 04:33:56;;;;;;;676.33;48.07;;;5.80;99.90;;;;;;5060144;28;20510;-71
2023/02/22 04:36:23;;;;;;;700.47;51.60;;;5.80;99.90;;;;;;5058164;28;20458;-74
2023/02/22 04:38:50;;;;;;;937.67;55.37;;;5.70;99.90;;;;;;5054581;28;20961;-75
2023/02/22 04:41:19;;;;;;;891.23;60.57;;;5.80;99.90;;;;;;5056202;28;20491;-71
2023/02/22 04:43:46;;;;;;;933.37;58.57;;;5.80;99.90;;;;;;5047929;28;20469;-74
2023/02/22 04:46:14;;;;;;;464.27;37.47;;;5.80;99.90;;;;;;5059442;28;20458;-72
2023/02/22 04:48:40;;;;;;;682.33;48.20;;;5.80;99.90;;;;;;5063485;28;20832;-71
2023/02/22 04:51:08;;;;;;;744.63;43.87;;;5.70;99.90;;;;;;5052164;28;20487;-71
2023/02/22 04:53:35;;;;;;;605.03;42.17;;;5.70;99.90;;;;;;5050450;28;20575;-73
2023/02/22 04:56:02;;;;;;;733.83;51.73;;;5.50;99.90;;;;;;5057285;28;20792;-73
2023/02/22 04:58:31;;;;;;;1220.23;74.60;;;5.60;99.90;;;;;;5057069;28;20958;-72
2023/02/22 05:00:58;;;;;;;995.90;61.33;;;5.60;99.90;;;;;;5043582;28;20467;-71
2023/02/22 05:03:24;;;;;;;1250.93;75.20;;;5.60;99.90;;;;;;5049073;28;20842;-75
2023/02/22 05:05:52;;;;;;;1027.37;63.33;;;5.60;99.90;;;;;;5055941;28;20472;-71
2023/02/22 05:08:18;;;;;;;957.73;64.13;;;5.70;99.90;;;;;;5055799;28;20456;-74
2023/02/22 05:10:46;;;;;;;1205.93;64.17;;;5.60;99.90;;;;;;5052130;28;20489;-70
2023/02/22 05:13:12;;;;;;;851.60;56.27;;;5.70;99.90;;;;;;5055386;28;20826;-71
2023/02/22 05:15:40;;;;;;;957.43;61.53;;;5.70;99.90;;;;;;5051420;28;20463;-74
2023/02/22 05:18:07;;;;;;;1108.23;65.10;;;5.60;99.90;;;;;;5053677;28;20474;-72
2023/02/22 05:20:36;;;;;;;731.73;47.23;;;5.60;99.90;;;;;;5054729;28;21031;-73
2023/02/22 05:23:04;;;;;;;443.83;37.60;;;5.50;99.90;;;;;;5055537;28;20556;-70
2023/02/22 05:25:32;;;;;;;718.10;49.00;;;5.50;99.90;;;;;;5051941;28;21054;-72
2023/02/22 05:28:02;;;;;;;1155.10;71.63;;;5.50;99.90;;;;;;5057238;28;20561;-74
2023/02/22 05:30:31;;;;;;;965.13;56.97;;;5.60;99.90;;;;;;5049804;28;20615;-73
2023/02/22 05:32:59;;;;;;;1013.40;68.07;;;5.50;99.90;;;;;;5052388;28;20468;-73
2023/02/22 05:35:28;;;;;;;944.93;62.13;;;5.50;99.90;;;;;;5049569;28;20484;-73
2023/02/22 05:37:56;;;;;;;591.80;45.77;;;5.50;99.90;;;;;;5051487;28;20988;-73
2023/02/22 05:40:25;;;;;;;730.60;48.10;;;5.60;99.90;;;;;;5058594;28;20459;-71
2023/02/22 05:42:53;;;;;;;1037.13;61.57;;;5.60;99.90;;;;;;5053459;28;20486;-72
2023/02/22 05:45:22;;;;;;;850.17;56.63;;;5.60;99.90;;;;;;5055787;28;20463;-71
2023/02/22 05:47:50;;;;;;;1019.83;65.20;;;5.60;99.90;;;;;;5055677;28;20463;-71
2023/02/22 05:50:19;;;;;;;790.13;59.17;;;5.60;99.90;;;;;;5053283;28;20510;-72
2023/02/22 05:52:47;;;;;;;742.13;52.10;;;5.60;99.90;;;;;;5053915;28;20464;-74
2023/02/22 05:55:15;;;;;;;222.97;32.00;;;5.50;99.90;;;;;;5056815;28;20984;-75
2023/02/22 05:57:42;;;;;;;264.93;32.33;;;5.50;99.90;;;;;;5052884;28;20527;-73
2023/02/22 06:00:11;;;;;;;195.83;29.10;;;5.50;99.90;;;;;;5056046;28;20458;-71
2023/02/22 06:02:38;;;;;;;130.30;28.20;;;5.50;99.90;;;;;;5057517;28;20474;-72
2023/02/22 06:05:05;;;;;;;164.30;29.57;;;5.50;99.90;;;;;;5058073;28;20468;-72
2023/02/22 06:07:34;;;;;;;255.17;32.60;;;5.50;99.90;;;;;;5059764;28;20900;-72
2023/02/22 06:10:01;;;;;;;425.73;38.30;;;5.50;99.90;;;;;;5057955;28;20479;-72
2023/02/22 06:12:28;;;;;;;313.73;34.90;;;5.50;99.90;;;;;;5047859;28;20460;-71
2023/02/22 06:14:55;;;;;;;163.67;28.80;;;5.50;99.90;;;;;;5053346;28;20943;-75
2023/02/22 06:17:22;;;;;;;293.43;37.23;;;5.60;99.90;;;;;;5061098;28;20485;-72
2023/02/22 06:19:49;;;;;;;234.13;33.80;;;5.60;99.90;;;;;;5056836;28;20460;-73
2023/02/22 06:22:17;;;;;;;175.37;32.43;;;5.70;99.90;;;;;;5054351;28;20967;-74
2023/02/22 06:24:46;;;;;;;96.00;31.10;;;5.70;99.90;;;;;;5047772;28;20451;-75
2023/02/22 06:27:12;;;;;;;214.47;32.20;;;5.60;99.90;;;;;;5060807;28;20565;-73
2023/02/22 06:29:44;;;;;;;192.27;29.43;;;5.70;99.90;;;;;;5051871;28;20473;-74
2023/02/22 06:32:12;;;;;;;136.93;29.50;;;5.70;99.90;;;;;;5051013;28;20474;-74
2023/02/22 06:34:39;;;;;;;59.77;25.77;;;5.70;99.90;;;;;;5047296;28;20541;-71
2023/02/22 06:37:06;;;;;;;87.80;27.27;;;5.80;99.90;;;;;;5054753;28;20558;-72
2023/02/22 06:39:34;;;;;;;39.53;25.97;;;5.80;99.90;;;;;;5051648;28;20800;-71
2023/02/22 06:42:02;;;;;;;62.57;27.43;;;5.70;99.90;;;;;;5053639;28;20519;-72
2023/02/22 06:44:28;;;;;;;81.80;27.77;;;5.70;99.90;;;;;;5051956;28;20471;-73
2023/02/22 06:46:55;;;;;;;55.20;25.77;;;5.70;99.90;;;;;;5064975;28;20478;-73
2023/02/22 06:49:22;;;;;;;51.60;26.47;;;5.70;99.90;;;;;;5056121;28;20509;-71
2023/02/22 06:51:49;;;;;;;32.23;24.90;;;5.70;99.90;;;;;;5051778;28;20454;-71
2023/02/22 06:54:16;;;;;;;34.23;25.90;;;5.60;99.90;;;;;;5052306;28;20839;-75
2023/02/22 06:56:43;;;;;;;43.40;26.40;;;5.60;99.90;;;;;;5056666;28;20460;-71
2023/02/22 06:59:11;;;;;;;36.13;26.00;;;5.50;99.90;;;;;;5062291;28;20458;-71
2023/02/22 07:01:41;;;;;;;36.83;25.63;;;5.50;99.90;;;;;;5065194;28;20490;-74
2023/02/22 07:04:08;;;;;;;42.70;28.10;;;5.50;99.90;;;;;;5040633;28;20459;-71
2023/02/22 07:06:36;;;;;;;41.53;27.40;;;5.50;99.90;;;;;;5053222;28;21094;-74
2023/02/22 07:09:03;;;;;;;37.50;27.10;;;5.40;99.90;;;;;;5058879;28;20474;-70
2023/02/22 07:11:30;;;;;;;37.87;27.47;;;5.50;99.90;;;;;;5056421;28;20464;-72
2023/02/22 07:13:57;;;;;;;40.70;26.33;;;5.40;99.90;;;;;;5055077;28;20464;-73
2023/02/22 07:16:25;;;;;;;40.83;27.37;;;5.40;99.90;;;;;;5057314;28;20484;-71
2023/02/22 07:18:52;;;;;;;38.03;26.07;;;5.40;99.90;;;;;;5059778;28;20458;-73
2023/02/22 07:21:18;;;;;;;37.97;26.70;;;5.50;99.90;;;;;;5053383;28;20472;-73
2023/02/22 07:23:52;;;;;;;40.10;27.33;;;5.50;99.90;;;;;;5053232;28;20546;-71
2023/02/22 07:26:19;;;;;;;43.37;28.33;;;5.50;99.90;;;;;;5056990;28;20555;-72
2023/02/22 07:28:46;;;;;;;41.30;27.00;;;5.50;99.90;;;;;;5061251;28;20676;-73
2023/02/22 07:31:12;;;;;;;38.83;26.10;;;5.50;99.90;;;;;;5056794;28;20463;-71
2023/02/22 07:33:41;;;;;;;39.17;26.40;;;5.50;99.90;;;;;;5062956;28;20455;-73
2023/02/22 07:36:09;;;;;;;37.37;27.57;;;5.60;99.90;;;;;;5050960;28;20497;-72
2023/02/22 07:38:37;;;;;;;38.57;26.83;;;5.60;99.90;;;;;;5059445;28;20807;-71
2023/02/22 07:41:04;;;;;;;38.53;27.00;;;5.60;99.90;;;;;;5055335;28;20486;-73
2023/02/22 07:43:31;;;;;;;44.43;27.50;;;5.70;99.90;;;;;;5057201;28;20545;-71
2023/02/22 07:46:01;;;;;;;37.50;26.63;;;5.80;99.90;;;;;;5061056;28;20467;-70
2023/02/22 07:48:29;;;;;;;34.57;27.87;;;5.80;99.90;;;;;;5059700;28;20957;-74
2023/02/22 07:50:58;;;;;;;38.00;27.10;;;5.80;99.90;;;;;;5052388;28;20498;-73
2023/02/22 07:53:28;;;;;;;35.30;26.27;;;5.90;99.90;;;;;;5054730;28;20475;-73
2023/02/22 07:55:56;;;;;;;35.87;27.60;;;6.00;99.90;;;;;;5048076;28;21022;-70
2023/02/22 07:58:24;;;;;;;35.13;25.90;;;6.10;99.90;;;;;;5045221;28;20482;-74
2023/02/22 08:00:52;;;;;;;37.93;28.13;;;6.30;99.90;;;;;;5051287;28;20455;-72
2023/02/22 08:03:21;;;;;;;38.40;27.27;;;6.40;99.90;;;;;;5053597;28;20472;-70
2023/02/22 08:05:49;;;;;;;31.43;25.30;;;6.60;99.90;;;;;;5053993;28;20548;-70
2023/02/22 08:08:17;;;;;;;29.63;25.93;;;6.60;99.90;;;;;;5043513;28;20518;-71
2023/02/22 08:10:45;;;;;;;31.97;25.73;;;6.50;99.90;;;;;;5056817;28;20483;-70
2023/02/22 08:13:12;;;;;;;33.80;26.63;;;6.60;99.90;;;;;;5052030;28;20499;-72
2023/02/22 08:15:40;;;;;;;30.40;24.00;;;6.60;99.90;;;;;;5047255;28;20490;-73
2023/02/22 08:18:09;;;;;;;34.97;25.07;;;6.70;99.90;;;;;;5058514;28;20888;-72
2023/02/22 08:20:36;;;;;;;35.63;25.10;;;6.80;99.90;;;;;;5054361;28;22338;-72
2023/02/22 08:23:03;;;;;;;32.03;25.03;;;7.00;99.90;;;;;;5054873;28;20466;-74
2023/02/22 08:25:32;;;;;;;34.90;26.07;;;7.10;99.90;;;;;;5054878;28;20562;-73
2023/02/22 08:28:02;;;;;;;32.90;24.03;;;7.00;99.90;;;;;;5056141;28;21080;-71
2023/02/22 08:30:30;;;;;;;36.53;26.70;;;7.20;99.90;;;;;;5050151;28;20816;-73
2023/02/22 08:32:57;;;;;;;38.63;27.10;;;7.20;99.90;;;;;;5059106;28;20833;-73
2023/02/22 08:35:26;;;;;;;31.60;24.60;;;7.30;99.90;;;;;;5056057;28;20504;-73
2023/02/22 08:37:54;;;;;;;31.47;25.90;;;7.40;99.90;;;;;;5056920;28;20570;-75
2023/02/22 08:40:23;;;;;;;44.23;27.37;;;7.70;99.90;;;;;;5053937;28;20540;-75
2023/02/22 08:42:52;;;;;;;35.37;25.50;;;7.80;99.90;;;;;;5054729;28;20838;-73
2023/02/22 08:45:18;;;;;;;34.40;26.00;;;7.80;99.90;;;;;;5053923;28;20533;-73
2023/02/22 08:47:45;;;;;;;31.70;24.70;;;7.90;99.90;;;;;;5048816;28;20465;-75
2023/02/22 08:50:18;;;;;;;34.80;24.47;;;8.00;99.90;;;;;;5053391;28;20467;-71
2023/02/22 08:52:45;;;;;;;27.70;23.70;;;8.00;99.90;;;;;;5053874;28;20463;-73
2023/02/22 08:55:13;;;;;;;40.37;27.00;;;8.00;99.90;;;;;;5058931;28;20483;-75
2023/02/22 08:57:40;;;;;;;35.50;26.50;;;7.90;99.90;;;;;;5054348;28;20866;-73
2023/02/22 09:00:10;;;;;;;34.53;27.13;;;8.10;99.90;;;;;;5053283;28;20476;-72
2023/02/22 09:02:37;;;;;;;27.27;23.97;;;8.30;99.90;;;;;;5058653;28;20968;-74
2023/02/22 09:05:05;;;;;;;38.53;26.13;;;8.40;99.90;;;;;;5059226;28;21009;-73
2023/02/22 09:07:32;;;;;;;40.87;25.83;;;8.40;99.90;;;;;;5059503;28;20459;-73
2023/02/22 09:10:00;;;;;;;33.30;25.40;;;8.50;99.90;;;;;;5058595;28;20483;-74
2023/02/22 09:12:28;;;;;;;32.47;25.77;;;8.50;99.90;;;;;;5056325;28;20469;-75
2023/02/22 09:14:55;;;;;;;31.53;25.60;;;8.70;99.90;;;;;;5059956;28;20576;-70
2023/02/22 09:17:24;;;;;;;30.30;25.90;;;8.70;99.90;;;;;;5057111;28;20491;-73
2023/02/22 09:19:51;;;;;;;30.27;24.47;;;8.70;99.90;;;;;;5057795;28;20474;-74
2023/02/22 09:22:17;;;;;;;36.27;27.07;;;8.80;99.90;;;;;;5052595;28;20471;-71
2023/02/22 09:24:44;;;;;;;39.03;26.67;;;8.90;99.90;;;;;;5048822;28;20463;-72
2023/02/22 09:27:11;;;;;;;32.07;26.33;;;8.80;99.90;;;;;;5055682;28;20830;-73
2023/02/22 09:29:39;;;;;;;34.20;26.40;;;8.90;99.90;;;;;;5057778;28;20473;-71
2023/02/22 09:32:06;;;;;;;34.87;27.40;;;9.00;99.90;;;;;;5056632;28;20553;-70
2023/02/22 09:34:34;;;;;;;33.30;26.67;;;9.20;99.90;;;;;;5052405;28;20463;-70
2023/02/22 09:37:01;;;;;;;31.53;25.63;;;9.30;99.90;;;;;;5052097;28;20456;-71
2023/02/22 09:39:28;;;;;;;30.27;25.53;;;9.50;99.90;;;;;;5047133;28;20464;-70
2023/02/22 09:42:08;;;;;;;35.47;28.37;;;9.60;99.90;;;;;;5054787;28;20495;-70
2023/02/22 09:44:40;;;;;;;36.33;26.80;;;9.60;99.90;;;;;;5060879;28;20462;-70
2023/02/22 09:47:14;;;;;;;30.37;27.17;;;9.70;99.90;;;;;;5057626;28;20470;-70
2023/02/22 09:49:47;;;;;;;30.60;26.37;;;10.00;99.90;;;;;;5050832;28;20462;-71
2023/02/22 09:52:21;;;;;;;32.10;26.70;;;10.20;99.90;;;;;;5050875;28;20566;-70
2023/02/22 09:54:51;;;;;;;28.47;25.10;;;10.30;99.90;;;;;;5056305;28;20837;-71
2023/02/22 09:57:25;;;;;;;32.50;27.07;;;10.50;99.90;;;;;;5051788;28;20463;-73
2023/02/22 09:59:59;;;;;;;29.30;26.30;;;10.60;99.90;;;;;;5059818;28;20889;-72
2023/02/22 10:02:30;;;;;;;34.97;27.80;;;10.80;99.90;;;;;;5052219;28;20459;-74
2023/02/22 10:05:05;;;;;;;32.90;27.90;;;10.90;99.90;;;;;;5058136;28;20459;-73
2023/02/22 10:07:36;;;;;;;29.90;26.70;;;10.90;99.90;;;;;;5052634;28;20538;-73
2023/02/22 10:10:05;;;;;;;28.63;25.77;;;11.10;99.90;;;;;;5055836;28;20771;-71
2023/02/22 10:12:42;;;;;;;29.40;26.50;;;11.20;99.90;;;;;;5063065;28;20925;-73
2023/02/22 10:15:28;;;;;;;34.00;27.30;;;11.20;99.90;;;;;;5058364;28;20470;-72
2023/02/22 10:18:07;;;;;;;29.50;26.27;;;11.50;99.90;;;;;;5057975;28;20463;-73
2023/02/22 10:20:46;;;;;;;30.53;26.60;;;11.60;99.90;;;;;;5052490;28;20513;-71
2023/02/22 10:23:21;;;;;;;27.13;24.40;;;11.80;99.90;;;;;;5054759;28;20463;-75
2023/02/22 10:25:54;;;;;;;28.33;25.67;;;12.20;99.90;;;;;;5046863;28;20463;-71
2023/02/22 10:28:26;;;;;;;32.60;27.63;;;12.20;99.90;;;;;;5060152;28;20459;-71
2023/02/22 10:30:57;;;;;;;31.37;27.07;;;12.40;99.90;;;;;;5049839;28;20486;-71
2023/02/22 10:33:30;;;;;;;28.83;25.83;;;12.80;99.90;;;;;;5059967;28;20466;-76
2023/02/22 10:35:59;;;;;;;28.57;25.50;;;13.40;99.90;;;;;;5060448;28;20490;-72
2023/02/22 10:38:29;;;;;;;28.43;24.77;;;14.00;99.90;;;;;;5056280;28;20464;-73
2023/02/22 10:41:00;;;;;;;28.20;25.20;;;14.30;99.90;;;;;;5060448;28;20999;-72
2023/02/22 10:43:27;;;;;;;27.10;24.30;;;14.20;99.90;;;;;;5058953;28;20550;-72
2023/02/22 10:45:56;;;;;;;26.20;23.80;;;14.70;99.90;;;;;;5055823;28;20460;-71
2023/02/22 10:48:26;;;;;;;26.70;24.00;;;15.10;99.90;;;;;;5052722;28;20982;-70
2023/02/22 10:50:58;;;;;;;26.63;23.67;;;15.10;99.90;;;;;;5062451;28;20459;-72
2023/02/22 10:53:26;;;;;;;26.27;24.13;;;15.50;99.90;;;;;;5053705;28;20824;-72
2023/02/22 10:56:16;;;;;;;26.30;23.83;;;15.50;99.90;;;;;;5059907;28;20488;-72
2023/02/22 10:58:47;;;;;;;27.53;24.80;;;15.50;99.90;;;;;;5054812;28;20463;-72
2023/02/22 11:01:23;;;;;;;26.47;23.97;;;15.60;99.90;;;;;;5052460;28;20547;-72
2023/02/22 11:04:02;;;;;;;26.57;23.97;;;15.80;99.90;;;;;;5057933;28;20465;-72
2023/02/22 11:06:30;;;;;;;24.73;22.80;;;16.00;99.90;;;;;;5060393;28;20992;-74
2023/02/22 11:09:09;;;;;;;26.93;24.50;;;16.40;99.90;;;;;;5057432;28;20968;-74
2023/02/22 11:11:40;;;;;;;26.53;24.20;;;16.60;99.90;;;;;;5051236;28;20486;-73
2023/02/22 11:14:09;;;;;;;26.23;23.93;;;17.00;99.90;;;;;;5051840;28;20470;-72
2023/02/22 11:16:38;;;;;;;26.33;23.60;;;17.10;99.90;;;;;;5059411;28;20483;-75
2023/02/22 11:19:16;;;;;;;25.80;23.70;;;16.90;99.90;;;;;;5062160;28;20459;-72
2023/02/22 11:21:44;;;;;;;26.50;24.00;;;16.90;99.90;;;;;;5045998;28;20466;-72
2023/02/22 11:24:15;;;;;;;28.77;23.37;;;17.60;99.90;;;;;;5053627;28;20483;-72
2023/02/22 11:26:44;;;;;;;25.70;23.23;;;18.30;99.90;;;;;;5054824;28;20941;-72
2023/02/22 11:29:18;;;;;;;25.40;22.80;;;18.70;99.90;;;;;;5054803;28;20983;-72
2023/02/22 11:31:47;;;;;;;27.77;22.77;;;18.90;99.90;;;;;;5058804;28;20502;-72
2023/02/22 11:34:34;;;;;;;24.83;22.63;;;19.10;99.90;;;;;;5054538;28;20883;-72
2023/02/22 11:37:17;;;;;;;23.80;21.80;;;19.30;99.90;;;;;;5057298;28;20494;-72
2023/02/22 11:39:46;;;;;;;25.23;22.60;;;19.40;99.90;;;;;;5055672;28;21054;-73
2023/02/22 11:42:23;;;;;;;24.17;21.73;;;19.20;99.90;;;;;;5060783;28;20483;-71
2023/02/22 11:45:08;;;;;;;25.73;23.27;;;19.00;99.90;;;;;;5064159;28;20819;-75
2023/02/22 11:47:35;;;;;;;24.00;22.03;;;18.70;99.90;;;;;;5054530;28;20455;-71
2023/02/22 11:50:10;;;;;;;30.63;23.07;;;18.40;99.90;;;;;;5057172;28;20452;-72
2023/02/22 11:52:43;;;;;;;31.07;22.70;;;18.90;99.90;;;;;;5058276;28;20460;-71
2023/02/22 11:55:22;;;;;;;25.20;22.30;;;18.50;99.90;;;;;;5054725;28;20534;-75
2023/02/22 11:58:00;;;;;;;23.80;21.57;;;18.90;99.90;;;;;;5057279;28;20466;-75
2023/02/22 12:00:34;;;;;;;25.90;23.47;;;19.50;99.90;;;;;;5054276;28;20485;-72
2023/02/22 12:03:35;;;;;;;24.57;22.27;;;19.40;99.90;;;;;;5057715;28;20460;-72
2023/02/22 12:06:18;;;;;;;24.93;22.83;;;19.20;99.90;;;;;;4985995;28;20569;-72
2023/02/22 12:08:55;;;;;;;25.63;22.93;;;19.00;99.90;;;;;;5055236;28;20737;-72
2023/02/22 12:11:29;;;;;;;24.40;22.30;;;19.00;99.90;;;;;;5058499;28;20513;-74
2023/02/22 12:14:07;;;;;;;25.57;23.20;;;19.10;99.90;;;;;;5052552;28;20766;-72
2023/02/22 12:16:43;;;;;;;27.93;23.80;;;19.10;99.90;;;;;;5058265;28;20487;-72
2023/02/22 12:19:18;;;;;;;24.63;22.33;;;19.10;99.90;;;;;;5055204;28;20549;-73
2023/02/22 12:21:52;;;;;;;25.57;22.30;;;19.40;99.90;;;;;;5060453;28;20982;-73
2023/02/22 12:24:22;;;;;;;24.93;22.47;;;19.20;99.90;;;;;;5058109;28;20470;-72
2023/02/22 12:26:55;;;;;;;24.87;22.37;;;19.60;99.90;;;;;;5057476;28;20848;-71
2023/02/22 12:29:27;;;;;;;24.33;22.27;;;19.70;99.90;;;;;;5054136;28;20841;-74
2023/02/22 12:32:00;;;;;;;25.07;22.53;;;20.00;99.90;;;;;;5055068;28;20459;-73
2023/02/22 12:34:34;;;;;;;24.27;21.80;;;20.00;99.90;;;;;;5056157;28;20459;-74
2023/02/22 12:37:09;;;;;;;24.40;22.20;;;19.50;99.90;;;;;;5056485;28;20905;-72
2023/02/22 12:39:49;;;;;;;23.33;21.27;;;20.00;99.90;;;;;;5051896;28;20474;-75
2023/02/22 12:42:21;;;;;;;23.80;21.73;;;20.30;99.90;;;;;;5052163;28;22680;-72
2023/02/22 12:44:54;;;;;;;33.53;21.50;;;20.10;99.90;;;;;;5059621;28;20999;-73